createdAt,value
2019-01-12T00:00:52.093Z,0.00
2019-01-12T00:01:52.100Z,0.00
2019-01-12T00:02:52.071Z,0.00
2019-01-12T00:03:52.065Z,0.00
2019-01-12T00:04:52.054Z,0.00
2019-01-12T00:05:52.043Z,0.00
2019-01-12T00:06:52.036Z,0.00
2019-01-12T00:07:52.029Z,0.00
2019-01-12T00:08:52.019Z,0.00
2019-01-12T00:09:52.423Z,0.00
2019-01-12T00:10:52.004Z,0.00
2019-01-12T00:11:51.999Z,0.00
2019-01-12T00:13:51.987Z,0.00
2019-01-12T00:14:51.978Z,0.00
2019-01-12T00:15:51.967Z,0.00
2019-01-12T00:16:51.957Z,0.00
2019-01-12T00:17:51.947Z,0.00
2019-01-12T00:18:51.948Z,0.00
2019-01-12T00:19:51.937Z,0.00
2019-01-12T00:20:51.925Z,0.00
2019-01-12T00:21:51.914Z,0.00
2019-01-12T00:22:51.906Z,0.00
2019-01-12T00:23:51.899Z,0.00
2019-01-12T00:24:51.890Z,0.00
2019-01-12T00:25:51.885Z,0.00
2019-01-12T00:26:51.878Z,0.00
2019-01-12T00:27:51.866Z,0.00
2019-01-12T00:28:52.061Z,0.00
2019-01-12T00:29:51.849Z,0.00
2019-01-12T00:30:51.849Z,0.00
2019-01-12T00:31:51.835Z,0.00
2019-01-12T00:32:51.825Z,0.00
2019-01-12T00:33:51.819Z,0.00
2019-01-12T00:34:51.811Z,0.00
2019-01-12T00:35:51.804Z,0.00
2019-01-12T00:36:51.793Z,0.00
2019-01-12T00:37:51.793Z,0.00
2019-01-12T00:38:51.782Z,0.00
2019-01-12T00:39:51.775Z,0.00
2019-01-12T00:40:51.770Z,0.00
2019-01-12T00:41:51.758Z,0.00
2019-01-12T00:42:51.747Z,0.00
2019-01-12T00:44:51.732Z,0.00
2019-01-12T00:45:51.722Z,0.00
2019-01-12T00:46:51.717Z,0.00
2019-01-12T00:47:51.705Z,0.00
2019-01-12T00:48:51.702Z,0.00
2019-01-12T00:49:51.696Z,0.00
2019-01-12T00:50:51.686Z,0.00
2019-01-12T00:51:51.680Z,0.00
2019-01-12T00:52:51.670Z,0.00
2019-01-12T00:53:51.665Z,0.00
2019-01-12T00:54:51.658Z,0.00
2019-01-12T00:55:51.648Z,0.00
2019-01-12T00:56:51.635Z,0.00
2019-01-12T00:57:51.632Z,0.00
2019-01-12T00:58:51.626Z,0.00
2019-01-12T00:59:51.611Z,0.00
2019-01-12T01:00:51.603Z,0.00
2019-01-12T01:01:51.596Z,0.00
2019-01-12T01:02:51.586Z,0.00
2019-01-12T01:03:51.577Z,0.00
2019-01-12T01:04:51.570Z,0.00
2019-01-12T01:05:51.567Z,0.00
2019-01-12T01:06:51.557Z,0.00
2019-01-12T01:07:51.546Z,0.00
2019-01-12T01:08:51.537Z,0.00
2019-01-12T01:09:51.530Z,0.00
2019-01-12T01:10:51.524Z,0.00
2019-01-12T01:11:51.521Z,0.00
2019-01-12T01:12:51.513Z,0.00
2019-01-12T01:13:51.505Z,0.00
2019-01-12T01:14:51.489Z,0.00
2019-01-12T01:15:51.486Z,0.00
2019-01-12T01:16:51.478Z,0.00
2019-01-12T01:17:51.466Z,0.00
2019-01-12T01:18:51.460Z,0.00
2019-01-12T01:19:51.449Z,0.00
2019-01-12T01:20:51.448Z,0.00
2019-01-12T01:21:51.436Z,0.00
2019-01-12T01:22:51.431Z,0.00
2019-01-12T01:23:51.419Z,0.00
2019-01-12T01:24:51.409Z,0.00
2019-01-12T01:25:51.413Z,0.00
2019-01-12T01:26:51.393Z,0.00
2019-01-12T01:27:51.390Z,0.00
2019-01-12T01:28:51.380Z,0.00
2019-01-12T01:29:51.370Z,0.00
2019-01-12T01:30:51.368Z,0.00
2019-01-12T01:31:51.358Z,0.00
2019-01-12T01:32:51.356Z,0.00
2019-01-12T01:33:51.338Z,0.00
2019-01-12T01:34:51.333Z,0.00
2019-01-12T01:35:51.326Z,0.00
2019-01-12T01:36:51.312Z,0.00
2019-01-12T01:37:51.304Z,0.00
2019-01-12T01:38:51.300Z,0.00
2019-01-12T01:39:51.289Z,0.00
2019-01-12T01:40:51.289Z,0.00
2019-01-12T01:41:51.277Z,0.00
2019-01-12T01:42:51.268Z,0.00
2019-01-12T01:43:51.259Z,0.00
2019-01-12T01:44:51.261Z,0.00
2019-01-12T01:45:51.247Z,0.00
2019-01-12T01:46:51.235Z,0.00
2019-01-12T01:47:51.223Z,0.00
2019-01-12T01:48:51.219Z,0.00
2019-01-12T01:50:51.203Z,0.00
2019-01-12T01:51:51.198Z,0.00
2019-01-12T01:52:51.190Z,0.00
2019-01-12T01:54:24.438Z,0.00
2019-01-12T01:54:52.875Z,0.00
2019-01-12T01:55:51.166Z,0.00
2019-01-12T01:56:51.359Z,0.00
2019-01-12T01:57:51.147Z,0.00
2019-01-12T01:58:51.138Z,0.00
2019-01-12T01:59:51.126Z,0.00
2019-01-12T02:00:51.123Z,0.00
2019-01-12T02:01:51.115Z,0.00
2019-01-12T02:03:51.102Z,0.00
2019-01-12T02:04:51.089Z,0.00
2019-01-12T02:05:51.084Z,0.00
2019-01-12T02:06:51.077Z,0.00
2019-01-12T02:07:51.064Z,0.00
2019-01-12T02:08:51.054Z,0.00
2019-01-12T02:09:51.044Z,0.00
2019-01-12T02:10:51.043Z,0.00
2019-01-12T02:11:51.030Z,0.00
2019-01-12T02:12:51.026Z,0.00
2019-01-12T02:13:51.016Z,0.00
2019-01-12T02:14:51.013Z,0.00
2019-01-12T02:15:51.203Z,0.00
2019-01-12T02:16:50.985Z,0.00
2019-01-12T02:17:50.983Z,0.00
2019-01-12T02:18:50.975Z,0.00
2019-01-12T02:19:50.964Z,0.00
2019-01-12T02:20:50.957Z,0.00
2019-01-12T02:21:50.951Z,0.00
2019-01-12T02:23:50.930Z,0.00
2019-01-12T02:24:50.924Z,0.00
2019-01-12T02:25:50.914Z,0.00
2019-01-12T02:26:50.912Z,0.00
2019-01-12T02:27:50.895Z,0.00
2019-01-12T02:28:50.889Z,0.00
2019-01-12T02:29:50.886Z,0.00
2019-01-12T02:30:50.878Z,0.00
2019-01-12T02:31:51.069Z,0.00
2019-01-12T02:32:50.858Z,0.00
2019-01-12T02:33:50.851Z,0.00
2019-01-12T02:34:50.837Z,0.00
2019-01-12T02:36:50.823Z,0.00
2019-01-12T02:37:50.819Z,0.00
2019-01-12T02:38:50.810Z,0.00
2019-01-12T02:39:50.796Z,0.00
2019-01-12T02:40:50.792Z,0.00
2019-01-12T02:41:50.786Z,0.00
2019-01-12T02:42:50.770Z,0.00
2019-01-12T02:43:50.776Z,0.00
2019-01-12T02:44:50.768Z,0.00
2019-01-12T02:45:50.946Z,0.00
2019-01-12T02:46:50.742Z,0.00
2019-01-12T02:47:50.728Z,0.00
2019-01-12T02:48:50.727Z,0.00
2019-01-12T02:49:50.713Z,0.00
2019-01-12T02:50:50.709Z,0.00
2019-01-12T02:51:50.696Z,0.00
2019-01-12T02:52:50.691Z,0.00
2019-01-12T02:53:50.686Z,0.00
2019-01-12T02:54:50.678Z,0.00
2019-01-12T02:55:50.663Z,0.00
2019-01-12T02:56:50.655Z,0.00
2019-01-12T02:57:50.643Z,0.00
2019-01-12T02:58:50.636Z,0.00
2019-01-12T02:59:50.630Z,0.00
2019-01-12T03:00:50.619Z,0.00
2019-01-12T03:01:50.613Z,0.00
2019-01-12T03:02:50.606Z,0.00
2019-01-12T03:03:50.598Z,0.00
2019-01-12T03:04:50.586Z,0.00
2019-01-12T03:05:50.581Z,0.00
2019-01-12T03:06:50.568Z,0.00
2019-01-12T03:07:50.565Z,0.00
2019-01-12T03:08:50.557Z,0.00
2019-01-12T03:09:50.544Z,0.00
2019-01-12T03:10:50.537Z,0.00
2019-01-12T03:11:50.530Z,0.00
2019-01-12T03:12:50.520Z,0.00
2019-01-12T03:13:50.517Z,0.00
2019-01-12T03:14:50.509Z,0.00
2019-01-12T03:15:50.500Z,0.00
2019-01-12T03:16:50.486Z,0.00
2019-01-12T03:17:50.480Z,0.00
2019-01-12T03:18:50.470Z,0.00
2019-01-12T03:19:50.461Z,0.00
2019-01-12T03:20:50.453Z,0.00
2019-01-12T03:21:50.444Z,0.00
2019-01-12T03:22:50.438Z,0.00
2019-01-12T03:24:50.416Z,0.00
2019-01-12T03:25:50.432Z,0.00
2019-01-12T03:26:50.402Z,0.00
2019-01-12T03:27:50.400Z,0.00
2019-01-12T03:28:50.393Z,0.00
2019-01-12T03:29:50.377Z,0.00
2019-01-12T03:30:50.375Z,0.00
2019-01-12T03:31:50.362Z,0.00
2019-01-12T03:32:50.355Z,0.00
2019-01-12T03:33:50.346Z,0.00
2019-01-12T03:34:50.334Z,0.00
2019-01-12T03:35:50.323Z,0.00
2019-01-12T03:36:50.321Z,0.00
2019-01-12T03:37:50.313Z,0.00
2019-01-12T03:38:50.308Z,0.00
2019-01-12T03:39:50.296Z,0.00
2019-01-12T03:40:50.283Z,0.00
2019-01-12T03:41:50.288Z,0.00
2019-01-12T03:42:50.263Z,0.00
2019-01-12T03:43:50.259Z,0.00
2019-01-12T03:44:50.250Z,0.00
2019-01-12T03:45:50.240Z,0.00
2019-01-12T03:46:50.237Z,0.00
2019-01-12T03:47:50.228Z,0.00
2019-01-12T03:48:50.218Z,0.00
2019-01-12T03:49:50.212Z,0.00
2019-01-12T03:51:50.196Z,0.00
2019-01-12T03:52:50.194Z,0.00
2019-01-12T03:53:50.178Z,0.00
2019-01-12T03:54:50.171Z,0.00
2019-01-12T03:55:50.159Z,0.00
2019-01-12T03:56:50.145Z,0.00
2019-01-12T03:57:50.149Z,0.00
2019-01-12T03:58:50.135Z,0.00
2019-01-12T03:59:50.122Z,0.00
2019-01-12T04:00:50.137Z,0.00
2019-01-12T04:01:50.109Z,0.00
2019-01-12T04:03:50.090Z,0.00
2019-01-12T04:04:50.079Z,0.00
2019-01-12T04:05:50.072Z,0.00
2019-01-12T04:06:50.069Z,0.00
2019-01-12T04:07:50.058Z,0.00
2019-01-12T04:08:50.046Z,0.00
2019-01-12T04:09:50.038Z,0.00
2019-01-12T04:10:50.034Z,0.00
2019-01-12T04:11:50.018Z,0.00
2019-01-12T04:12:50.013Z,0.00
2019-01-12T04:13:50.009Z,0.00
2019-01-12T04:14:49.999Z,0.00
2019-01-12T04:15:49.987Z,0.00
2019-01-12T04:16:49.980Z,0.00
2019-01-12T04:17:49.968Z,0.00
2019-01-12T04:18:49.967Z,0.00
2019-01-12T04:19:49.960Z,0.00
2019-01-12T04:20:49.950Z,0.00
2019-01-12T04:21:49.942Z,0.00
2019-01-12T04:22:49.929Z,0.00
2019-01-12T04:23:49.920Z,0.00
2019-01-12T04:24:49.912Z,0.00
2019-01-12T04:25:49.903Z,0.00
2019-01-12T04:26:49.897Z,0.00
2019-01-12T04:27:50.083Z,0.00
2019-01-12T04:28:49.875Z,0.00
2019-01-12T04:29:49.871Z,0.00
2019-01-12T04:30:49.859Z,0.00
2019-01-12T04:33:49.836Z,0.00
2019-01-12T04:34:49.823Z,0.00
2019-01-12T04:35:49.813Z,0.00
2019-01-12T04:36:49.806Z,0.00
2019-01-12T04:37:49.805Z,0.00
2019-01-12T04:38:49.797Z,0.00
2019-01-12T04:39:49.780Z,0.00
2019-01-12T04:40:49.771Z,0.00
2019-01-12T04:41:49.767Z,0.00
2019-01-12T04:42:49.756Z,0.00
2019-01-12T04:43:49.749Z,0.00
2019-01-12T04:44:49.741Z,0.00
2019-01-12T04:45:49.732Z,0.00
2019-01-12T04:46:49.718Z,0.00
2019-01-12T04:47:49.708Z,0.00
2019-01-12T04:48:49.698Z,0.00
2019-01-12T04:49:49.695Z,0.00
2019-01-12T04:50:49.680Z,0.00
2019-01-12T04:51:49.676Z,0.00
2019-01-12T04:52:49.671Z,0.00
2019-01-12T04:53:49.663Z,0.00
2019-01-12T04:54:49.655Z,0.00
2019-01-12T04:55:49.645Z,0.00
2019-01-12T04:56:49.628Z,0.00
2019-01-12T04:57:49.622Z,0.00
2019-01-12T04:58:49.667Z,0.00
2019-01-12T04:59:49.610Z,0.00
2019-01-12T05:00:49.593Z,0.00
2019-01-12T05:01:49.600Z,0.00
2019-01-12T05:02:49.577Z,0.00
2019-01-12T05:03:49.566Z,0.00
2019-01-12T05:04:49.568Z,0.00
2019-01-12T05:05:49.557Z,0.00
2019-01-12T05:06:49.548Z,0.00
2019-01-12T05:07:49.534Z,0.00
2019-01-12T05:08:49.528Z,0.00
2019-01-12T05:09:49.520Z,0.00
2019-01-12T05:10:49.513Z,0.00
2019-01-12T05:11:49.499Z,0.00
2019-01-12T05:12:49.490Z,0.00
2019-01-12T05:13:49.487Z,0.00
2019-01-12T05:15:49.465Z,0.00
2019-01-12T05:16:49.458Z,0.00
2019-01-12T05:17:49.452Z,0.00
2019-01-12T05:18:49.437Z,0.00
2019-01-12T05:19:49.428Z,0.00
2019-01-12T05:20:49.427Z,0.00
2019-01-12T05:21:49.411Z,0.00
2019-01-12T05:22:49.401Z,0.00
2019-01-12T05:23:49.398Z,0.00
2019-01-12T05:24:49.382Z,0.00
2019-01-12T05:25:49.515Z,0.00
2019-01-12T05:26:49.371Z,0.00
2019-01-12T05:27:49.366Z,0.00
2019-01-12T05:28:49.350Z,0.00
2019-01-12T05:29:49.341Z,0.00
2019-01-12T05:30:49.337Z,0.00
2019-01-12T05:31:49.329Z,0.00
2019-01-12T05:32:49.313Z,0.00
2019-01-12T05:33:49.304Z,0.00
2019-01-12T05:34:49.301Z,0.00
2019-01-12T05:35:49.289Z,0.00
2019-01-12T05:36:49.280Z,0.00
2019-01-12T05:37:49.269Z,0.00
2019-01-12T05:38:49.260Z,0.00
2019-01-12T05:39:49.249Z,0.00
2019-01-12T05:40:49.248Z,0.00
2019-01-12T05:41:49.231Z,0.00
2019-01-12T05:42:49.230Z,0.00
2019-01-12T05:43:49.220Z,0.00
2019-01-12T05:44:49.209Z,0.00
2019-01-12T05:45:49.203Z,0.00
2019-01-12T05:46:49.192Z,0.00
2019-01-12T05:47:49.180Z,0.00
2019-01-12T05:48:49.169Z,0.00
2019-01-12T05:49:49.170Z,0.00
2019-01-12T05:50:49.172Z,0.00
2019-01-12T05:51:49.148Z,0.00
2019-01-12T05:52:49.138Z,0.00
2019-01-12T05:53:49.125Z,0.00
2019-01-12T05:54:49.126Z,0.00
2019-01-12T05:55:56.622Z,0.00
2019-01-12T05:56:49.307Z,0.00
2019-01-12T05:57:49.099Z,0.00
2019-01-12T05:58:49.086Z,0.00
2019-01-12T05:59:49.281Z,0.00
2019-01-12T06:00:49.070Z,0.00
2019-01-12T06:01:49.061Z,0.00
2019-01-12T06:02:49.055Z,0.00
2019-01-12T06:03:49.046Z,0.00
2019-01-12T06:04:49.034Z,0.00
2019-01-12T06:05:49.025Z,0.00
2019-01-12T06:06:49.013Z,0.00
2019-01-12T06:07:49.004Z,0.00
2019-01-12T06:08:48.996Z,0.00
2019-01-12T06:09:48.987Z,0.00
2019-01-12T06:10:48.977Z,0.00
2019-01-12T06:11:48.968Z,0.00
2019-01-12T06:13:48.951Z,0.00
2019-01-12T06:14:48.942Z,0.00
2019-01-12T06:15:48.939Z,0.00
2019-01-12T06:16:48.931Z,0.00
2019-01-12T06:17:48.916Z,0.00
2019-01-12T06:18:48.908Z,0.00
2019-01-12T06:19:48.904Z,0.00
2019-01-12T06:20:48.894Z,0.00
2019-01-12T06:21:48.879Z,0.00
2019-01-12T06:22:48.872Z,0.00
2019-01-12T06:23:48.867Z,0.00
2019-01-12T06:24:48.851Z,0.00
2019-01-12T06:25:48.852Z,0.00
2019-01-12T06:26:48.839Z,0.00
2019-01-12T06:27:48.833Z,0.00
2019-01-12T06:28:48.818Z,0.00
2019-01-12T06:29:48.808Z,0.00
2019-01-12T06:30:48.810Z,0.00
2019-01-12T06:31:48.791Z,0.00
2019-01-12T06:32:48.783Z,0.00
2019-01-12T06:33:48.780Z,0.00
2019-01-12T06:34:48.772Z,0.00
2019-01-12T06:35:48.754Z,0.00
2019-01-12T06:36:48.755Z,0.00
2019-01-12T06:37:48.762Z,0.00
2019-01-12T06:38:48.735Z,0.00
2019-01-12T06:39:48.778Z,0.00
2019-01-12T06:40:48.719Z,0.00
2019-01-12T06:41:48.702Z,0.00
2019-01-12T06:42:48.694Z,0.00
2019-01-12T06:43:48.691Z,0.00
2019-01-12T06:44:48.675Z,0.00
2019-01-12T06:45:48.672Z,0.00
2019-01-12T06:46:48.660Z,0.00
2019-01-12T06:47:48.649Z,0.00
2019-01-12T06:48:48.643Z,0.00
2019-01-12T06:49:48.633Z,0.00
2019-01-12T06:50:48.628Z,0.00
2019-01-12T06:51:48.621Z,0.00
2019-01-12T06:52:48.617Z,0.00
2019-01-12T06:53:48.600Z,0.00
2019-01-12T06:54:48.594Z,0.00
2019-01-12T06:55:48.585Z,0.00
2019-01-12T06:56:48.571Z,0.00
2019-01-12T06:57:48.570Z,0.00
2019-01-12T06:58:48.555Z,0.00
2019-01-12T06:59:48.550Z,0.00
2019-01-12T07:00:48.544Z,0.00
2019-01-12T07:01:48.533Z,0.00
2019-01-12T07:02:48.524Z,0.00
2019-01-12T07:03:48.515Z,0.00
2019-01-12T07:04:48.506Z,4.00
2019-01-12T07:05:48.492Z,4.00
2019-01-12T07:06:48.492Z,4.00
2019-01-12T07:07:48.479Z,4.00
2019-01-12T07:08:48.471Z,4.00
2019-01-12T07:09:48.464Z,4.00
2019-01-12T07:10:48.855Z,8.00
2019-01-12T07:11:48.440Z,8.00
2019-01-12T07:12:48.432Z,12.00
2019-01-12T07:13:48.426Z,16.00
2019-01-12T07:14:48.420Z,20.00
2019-01-12T07:15:48.405Z,20.00
2019-01-12T07:16:48.401Z,20.00
2019-01-12T07:17:48.389Z,24.00
2019-01-12T07:18:48.387Z,28.00
2019-01-12T07:19:48.369Z,32.00
2019-01-12T07:20:48.368Z,36.00
2019-01-12T07:21:48.353Z,48.00
2019-01-12T07:23:48.335Z,56.00
2019-01-12T07:24:48.328Z,56.00
2019-01-12T07:25:48.318Z,72.00
2019-01-12T07:26:48.315Z,84.00
2019-01-12T07:27:48.300Z,92.00
2019-01-12T07:28:48.293Z,104.00
2019-01-12T07:29:48.287Z,112.00
2019-01-12T07:30:48.277Z,120.00
2019-01-12T07:31:48.272Z,136.00
2019-01-12T07:32:48.263Z,144.00
2019-01-12T07:33:48.250Z,160.00
2019-01-12T07:34:48.247Z,172.00
2019-01-12T07:35:48.237Z,180.00
2019-01-12T07:36:48.228Z,176.00
2019-01-12T07:37:48.218Z,172.00
2019-01-12T07:38:48.208Z,184.00
2019-01-12T07:39:48.193Z,188.00
2019-01-12T07:40:48.185Z,172.00
2019-01-12T07:41:48.180Z,140.00
2019-01-12T07:42:48.173Z,116.00
2019-01-12T07:43:48.159Z,112.00
2019-01-12T07:44:48.155Z,116.00
2019-01-12T07:45:48.145Z,120.00
2019-01-12T07:46:48.140Z,120.00
2019-01-12T07:47:48.130Z,132.00
2019-01-12T07:48:48.116Z,156.00
2019-01-12T07:49:48.106Z,164.00
2019-01-12T07:50:48.102Z,176.00
2019-01-12T07:51:48.088Z,196.00
2019-01-12T07:52:48.083Z,176.00
2019-01-12T07:53:48.078Z,172.00
2019-01-12T07:54:48.065Z,176.00
2019-01-12T07:55:48.055Z,160.00
2019-01-12T07:56:48.051Z,144.00
2019-01-12T07:57:48.036Z,148.00
2019-01-12T07:58:48.034Z,152.00
2019-01-12T07:59:48.024Z,180.00
2019-01-12T08:00:48.010Z,196.00
2019-01-12T08:01:48.000Z,204.00
2019-01-12T08:02:47.995Z,208.00
2019-01-12T08:03:47.986Z,216.00
2019-01-12T08:04:47.978Z,244.00
2019-01-12T08:05:47.972Z,276.00
2019-01-12T08:07:47.954Z,428.00
2019-01-12T08:08:47.938Z,416.00
2019-01-12T08:09:47.937Z,388.00
2019-01-12T08:10:47.920Z,388.00
2019-01-12T08:11:47.912Z,392.00
2019-01-12T08:12:47.907Z,440.00
2019-01-12T08:13:47.895Z,468.00
2019-01-12T08:14:47.894Z,488.00
2019-01-12T08:15:47.877Z,536.00
2019-01-12T08:16:47.874Z,552.00
2019-01-12T08:17:47.860Z,540.00
2019-01-12T08:18:47.854Z,620.00
2019-01-12T08:19:47.847Z,752.00
2019-01-12T08:20:47.842Z,976.00
2019-01-12T08:21:47.834Z,864.00
2019-01-12T08:22:47.817Z,764.00
2019-01-12T08:23:47.807Z,916.00
2019-01-12T08:24:47.799Z,940.00
2019-01-12T08:25:47.796Z,1000.00
2019-01-12T08:26:47.789Z,904.00
2019-01-12T08:27:47.774Z,848.00
2019-01-12T08:28:47.772Z,744.00
2019-01-12T08:29:47.764Z,1044.00
2019-01-12T08:30:47.752Z,1024.00
2019-01-12T08:31:47.741Z,856.00
2019-01-12T08:32:47.738Z,600.00
2019-01-12T08:33:47.729Z,592.00
2019-01-12T08:34:47.714Z,536.00
2019-01-12T08:35:47.708Z,708.00
2019-01-12T08:36:47.699Z,852.00
2019-01-12T08:37:47.687Z,656.00
2019-01-12T08:38:47.680Z,580.00
2019-01-12T08:39:47.676Z,516.00
2019-01-12T08:40:47.666Z,736.00
2019-01-12T08:41:47.653Z,864.00
2019-01-12T08:42:47.644Z,912.00
2019-01-12T08:43:47.640Z,860.00
2019-01-12T08:44:47.635Z,660.00
2019-01-12T08:45:47.622Z,508.00
2019-01-12T08:46:47.612Z,544.00
2019-01-12T08:47:47.605Z,512.00
2019-01-12T08:48:47.599Z,500.00
2019-01-12T08:49:47.586Z,476.00
2019-01-12T08:50:47.583Z,464.00
2019-01-12T08:51:47.573Z,464.00
2019-01-12T08:52:47.562Z,552.00
2019-01-12T08:53:47.554Z,564.00
2019-01-12T08:54:47.540Z,516.00
2019-01-12T08:55:47.536Z,752.00
2019-01-12T08:56:47.530Z,848.00
2019-01-12T08:57:47.516Z,1180.00
2019-01-12T08:58:47.513Z,1140.00
2019-01-12T08:59:47.499Z,1192.00
2019-01-12T09:00:47.493Z,1044.00
2019-01-12T09:01:47.480Z,1024.00
2019-01-12T09:02:47.478Z,1400.00
2019-01-12T09:03:47.469Z,1728.00
2019-01-12T09:04:47.458Z,1664.00
2019-01-12T09:05:47.447Z,1568.00
2019-01-12T09:06:47.446Z,1320.00
2019-01-12T09:07:47.635Z,1044.00
2019-01-12T09:08:47.427Z,1176.00
2019-01-12T09:09:47.419Z,1308.00
2019-01-12T09:10:47.607Z,1168.00
2019-01-12T09:11:47.401Z,1168.00
2019-01-12T09:12:47.386Z,968.00
2019-01-12T09:13:47.382Z,816.00
2019-01-12T09:14:47.372Z,924.00
2019-01-12T09:15:47.360Z,1012.00
2019-01-12T09:16:47.356Z,1108.00
2019-01-12T09:17:47.346Z,1036.00
2019-01-12T09:18:47.335Z,1204.00
2019-01-12T09:19:47.325Z,1372.00
2019-01-12T09:20:47.324Z,1548.00
2019-01-12T09:21:47.314Z,1652.00
2019-01-12T09:22:47.305Z,1676.00
2019-01-12T09:23:47.298Z,1956.00
2019-01-12T09:24:47.283Z,1740.00
2019-01-12T09:25:47.282Z,2184.00
2019-01-12T09:26:47.274Z,2668.00
2019-01-12T09:27:47.265Z,1844.00
2019-01-12T09:28:47.253Z,2256.00
2019-01-12T09:29:47.243Z,3988.00
2019-01-12T09:30:48.519Z,3000.00
2019-01-12T09:31:47.229Z,2700.00
2019-01-12T09:32:47.220Z,2584.00
2019-01-12T09:33:47.207Z,3376.00
2019-01-12T09:34:47.405Z,3328.00
2019-01-12T09:35:47.191Z,2176.00
2019-01-12T09:36:47.180Z,2272.00
2019-01-12T09:37:47.182Z,2692.00
2019-01-12T09:38:47.172Z,2164.00
2019-01-12T09:39:47.156Z,2520.00
2019-01-12T09:40:47.156Z,1920.00
2019-01-12T09:41:47.147Z,1336.00
2019-01-12T09:42:47.139Z,1176.00
2019-01-12T09:43:47.124Z,1184.00
2019-01-12T09:44:47.114Z,1228.00
2019-01-12T09:45:47.108Z,1244.00
2019-01-12T09:46:47.105Z,1172.00
2019-01-12T09:47:47.093Z,1064.00
2019-01-12T09:48:47.090Z,1172.00
2019-01-12T09:49:47.071Z,1064.00
2019-01-12T09:50:47.064Z,1088.00
2019-01-12T09:51:47.056Z,956.00
2019-01-12T09:52:47.054Z,1040.00
2019-01-12T09:53:47.038Z,1152.00
2019-01-12T09:54:47.032Z,1076.00
2019-01-12T09:55:47.023Z,880.00
2019-01-12T09:56:51.752Z,1000.00
2019-01-12T09:57:47.007Z,924.00
2019-01-12T09:58:47.004Z,876.00
2019-01-12T09:59:46.992Z,836.00
2019-01-12T10:00:46.981Z,772.00
2019-01-12T10:01:46.971Z,888.00
2019-01-12T10:02:46.962Z,1228.00
2019-01-12T10:03:47.004Z,1216.00
2019-01-12T10:04:46.949Z,1384.00
2019-01-12T10:05:46.943Z,1536.00
2019-01-12T10:06:46.931Z,1744.00
2019-01-12T10:07:46.927Z,1692.00
2019-01-12T10:08:46.915Z,1380.00
2019-01-12T10:09:46.904Z,1452.00
2019-01-12T10:10:46.901Z,1356.00
2019-01-12T10:11:46.890Z,1240.00
2019-01-12T10:12:46.878Z,1648.00
2019-01-12T10:13:46.877Z,1616.00
2019-01-12T10:14:46.858Z,2092.00
2019-01-12T10:15:46.859Z,2424.00
2019-01-12T10:16:46.845Z,1344.00
2019-01-12T10:17:46.840Z,1660.00
2019-01-12T10:18:47.030Z,1324.00
2019-01-12T10:19:46.815Z,1448.00
2019-01-12T10:20:46.807Z,1088.00
2019-01-12T10:21:46.799Z,1048.00
2019-01-12T10:22:46.795Z,1160.00
2019-01-12T10:23:46.779Z,1468.00
2019-01-12T10:24:46.773Z,1648.00
2019-01-12T10:25:46.767Z,1208.00
2019-01-12T10:26:46.756Z,1424.00
2019-01-12T10:27:46.745Z,1752.00
2019-01-12T10:28:46.739Z,1280.00
2019-01-12T10:29:46.732Z,1224.00
2019-01-12T10:30:46.723Z,1196.00
2019-01-12T10:31:46.707Z,1592.00
2019-01-12T10:33:46.693Z,1148.00
2019-01-12T10:34:46.687Z,1144.00
2019-01-12T10:35:46.676Z,1216.00
2019-01-12T10:36:46.672Z,1012.00
2019-01-12T10:37:46.666Z,1112.00
2019-01-12T10:38:46.653Z,1228.00
2019-01-12T10:39:46.645Z,1120.00
2019-01-12T10:40:46.632Z,1036.00
2019-01-12T10:41:46.625Z,1208.00
2019-01-12T10:42:46.618Z,976.00
2019-01-12T10:43:46.608Z,832.00
2019-01-12T10:44:46.598Z,1064.00
2019-01-12T10:45:46.591Z,1212.00
2019-01-12T10:46:46.579Z,928.00
2019-01-12T10:47:46.570Z,932.00
2019-01-12T10:48:46.565Z,792.00
2019-01-12T10:49:46.556Z,1192.00
2019-01-12T10:50:46.540Z,1040.00
2019-01-12T10:51:46.533Z,1176.00
2019-01-12T10:52:46.527Z,1220.00
2019-01-12T10:53:46.514Z,1340.00
2019-01-12T10:54:46.507Z,1204.00
2019-01-12T10:55:46.499Z,1412.00
2019-01-12T10:56:46.494Z,1376.00
2019-01-12T10:57:46.482Z,1116.00
2019-01-12T10:58:46.478Z,1508.00
2019-01-12T10:59:46.458Z,1508.00
2019-01-12T11:00:46.452Z,1708.00
2019-01-12T11:01:46.448Z,1396.00
2019-01-12T11:02:46.439Z,1216.00
2019-01-12T11:03:46.430Z,1348.00
2019-01-12T11:04:46.419Z,1284.00
2019-01-12T11:05:46.415Z,1092.00
2019-01-12T11:06:46.399Z,1360.00
2019-01-12T11:07:46.394Z,1508.00
2019-01-12T11:08:46.383Z,1764.00
2019-01-12T11:09:46.375Z,1416.00
2019-01-12T11:10:46.362Z,1368.00
2019-01-12T11:11:46.359Z,1468.00
2019-01-12T11:12:46.350Z,1748.00
2019-01-12T11:13:46.336Z,1716.00
2019-01-12T11:14:46.330Z,1240.00
2019-01-12T11:15:46.319Z,1252.00
2019-01-12T11:16:46.308Z,1372.00
2019-01-12T11:17:46.302Z,1736.00
2019-01-12T11:18:46.298Z,2020.00
2019-01-12T11:19:46.285Z,1816.00
2019-01-12T11:20:46.279Z,2228.00
2019-01-12T11:21:46.273Z,2452.00
2019-01-12T11:22:46.261Z,2220.00
2019-01-12T11:23:46.256Z,1812.00
2019-01-12T11:24:46.237Z,1760.00
2019-01-12T11:25:46.234Z,1684.00
2019-01-12T11:26:46.223Z,1992.00
2019-01-12T11:27:46.215Z,1580.00
2019-01-12T11:28:46.203Z,2228.00
2019-01-12T11:29:46.199Z,2148.00
2019-01-12T11:30:46.192Z,1432.00
2019-01-12T11:31:46.179Z,1640.00
2019-01-12T11:32:46.169Z,1112.00
2019-01-12T11:33:46.166Z,1432.00
2019-01-12T11:34:46.159Z,1628.00
2019-01-12T11:35:46.156Z,1144.00
2019-01-12T11:36:46.136Z,988.00
2019-01-12T11:37:46.127Z,1108.00
2019-01-12T11:38:46.121Z,1776.00
2019-01-12T11:39:46.105Z,1504.00
2019-01-12T11:40:46.100Z,1500.00
2019-01-12T11:41:46.090Z,1388.00
2019-01-12T11:42:46.089Z,1608.00
2019-01-12T11:43:46.076Z,1576.00
2019-01-12T11:44:46.069Z,1612.00
2019-01-12T11:45:46.062Z,1528.00
2019-01-12T11:46:46.044Z,1440.00
2019-01-12T11:47:46.046Z,1532.00
2019-01-12T11:48:46.031Z,1748.00
2019-01-12T11:49:46.025Z,2028.00
2019-01-12T11:50:46.011Z,1468.00
2019-01-12T11:51:46.002Z,1432.00
2019-01-12T11:52:45.996Z,2100.00
2019-01-12T11:53:45.990Z,2164.00
2019-01-12T11:54:45.974Z,1892.00
2019-01-12T11:55:46.000Z,2144.00
2019-01-12T11:56:45.962Z,1420.00
2019-01-12T11:57:45.954Z,1216.00
2019-01-12T11:58:45.946Z,1128.00
2019-01-12T11:59:45.931Z,924.00
2019-01-12T12:00:45.923Z,1052.00
2019-01-12T12:01:45.919Z,1168.00
2019-01-12T12:02:45.910Z,1164.00
2019-01-12T12:03:45.898Z,1368.00
2019-01-12T12:04:45.891Z,1612.00
2019-01-12T12:05:45.876Z,1568.00
2019-01-12T12:06:45.873Z,1628.00
2019-01-12T12:07:45.862Z,2228.00
2019-01-12T12:08:45.852Z,2304.00
2019-01-12T12:09:45.846Z,2516.00
2019-01-12T12:10:45.834Z,2504.00
2019-01-12T12:11:45.825Z,1764.00
2019-01-12T12:12:45.823Z,1216.00
2019-01-12T12:13:45.808Z,1352.00
2019-01-12T12:14:45.803Z,1692.00
2019-01-12T12:15:45.795Z,2184.00
2019-01-12T12:16:45.783Z,2568.00
2019-01-12T12:17:45.777Z,2264.00
2019-01-12T12:18:45.767Z,1384.00
2019-01-12T12:19:45.755Z,1432.00
2019-01-12T12:20:45.749Z,1424.00
2019-01-12T12:21:45.745Z,1504.00
2019-01-12T12:22:45.735Z,1932.00
2019-01-12T12:23:45.721Z,2228.00
2019-01-12T12:24:45.709Z,1892.00
2019-01-12T12:25:45.702Z,1500.00
2019-01-12T12:26:45.692Z,1672.00
2019-01-12T12:27:45.685Z,2204.00
2019-01-12T12:28:45.681Z,1592.00
2019-01-12T12:29:45.674Z,1632.00
2019-01-12T12:30:45.660Z,2192.00
2019-01-12T12:31:45.648Z,2336.00
2019-01-12T12:32:45.653Z,2296.00
2019-01-12T12:33:45.645Z,3032.00
2019-01-12T12:34:45.630Z,2168.00
2019-01-12T12:35:45.618Z,1080.00
2019-01-12T12:36:45.606Z,760.00
2019-01-12T12:37:45.596Z,1088.00
2019-01-12T12:38:45.593Z,944.00
2019-01-12T12:39:45.590Z,1112.00
2019-01-12T12:40:45.576Z,1280.00
2019-01-12T12:41:45.569Z,1564.00
2019-01-12T12:42:45.564Z,1280.00
2019-01-12T12:43:45.543Z,1788.00
2019-01-12T12:44:45.535Z,1448.00
2019-01-12T12:45:45.532Z,1272.00
2019-01-12T12:46:45.524Z,1280.00
2019-01-12T12:47:45.515Z,2008.00
2019-01-12T12:48:45.499Z,2084.00
2019-01-12T12:49:45.495Z,2176.00
2019-01-12T12:50:45.482Z,2048.00
2019-01-12T12:51:45.479Z,1644.00
2019-01-12T12:52:45.466Z,1212.00
2019-01-12T12:53:45.458Z,1092.00
2019-01-12T12:54:45.450Z,1288.00
2019-01-12T12:55:45.438Z,1288.00
2019-01-12T12:56:45.429Z,1504.00
2019-01-12T12:57:45.423Z,2040.00
2019-01-12T12:58:45.420Z,2164.00
2019-01-12T12:59:45.406Z,2352.00
2019-01-12T13:00:45.397Z,1864.00
2019-01-12T13:01:45.391Z,1792.00
2019-01-12T13:02:45.381Z,1720.00
2019-01-12T13:03:45.372Z,1692.00